createdAt,value
2023-07-02T00:00:07.441Z,4.90
2023-07-02T00:02:34.427Z,5.70
2023-07-02T00:05:01.219Z,4.90
2023-07-02T00:07:28.201Z,5.15
2023-07-02T00:09:55.428Z,5.50
2023-07-02T00:12:22.271Z,5.63
2023-07-02T00:14:49.072Z,5.78
2023-07-02T00:17:15.896Z,5.88
2023-07-02T00:19:43.062Z,5.82
2023-07-02T00:22:10.639Z,5.88
2023-07-02T00:24:38.294Z,6.90
2023-07-02T00:27:05.474Z,5.95
2023-07-02T00:29:32.296Z,6.43
2023-07-02T00:31:59.034Z,6.60
2023-07-02T00:34:26.201Z,6.25
2023-07-02T00:36:53.344Z,6.70
2023-07-02T00:39:20.207Z,6.00
2023-07-02T00:41:50.184Z,6.95
2023-07-02T00:44:17.050Z,6.78
2023-07-02T00:46:43.920Z,6.50
2023-07-02T00:49:11.267Z,6.65
2023-07-02T00:51:38.696Z,7.20
2023-07-02T00:54:05.903Z,7.10
2023-07-02T00:56:32.784Z,6.57
2023-07-02T00:59:00.269Z,5.75
2023-07-02T01:01:29.583Z,6.70
2023-07-02T01:04:01.239Z,5.82
2023-07-02T01:06:29.943Z,6.00
2023-07-02T01:08:59.158Z,6.00
2023-07-02T01:11:34.997Z,6.32
2023-07-02T01:14:09.910Z,6.40
2023-07-02T01:16:38.409Z,6.05
2023-07-02T01:19:07.984Z,6.63
2023-07-02T01:21:34.862Z,6.15
2023-07-02T01:24:03.016Z,6.03
2023-07-02T01:26:35.026Z,6.47
2023-07-02T01:29:16.936Z,6.45
2023-07-02T01:31:43.936Z,6.47
2023-07-02T01:34:10.968Z,5.25
2023-07-02T01:36:38.613Z,5.90
2023-07-02T01:39:05.823Z,5.68
2023-07-02T01:41:52.198Z,5.70
2023-07-02T01:44:20.056Z,6.43
2023-07-02T01:46:50.687Z,5.80
2023-07-02T01:49:21.117Z,6.45
2023-07-02T01:51:55.627Z,6.03
2023-07-02T01:54:23.712Z,5.57
2023-07-02T01:56:50.641Z,5.45
2023-07-02T01:59:20.304Z,5.88
2023-07-02T02:01:47.251Z,6.13
2023-07-02T02:04:14.612Z,5.93
2023-07-02T02:06:42.161Z,5.72
2023-07-02T02:09:12.820Z,6.32
2023-07-02T02:11:42.033Z,5.88
2023-07-02T02:14:08.767Z,6.03
2023-07-02T02:16:35.805Z,6.60
2023-07-02T02:19:03.916Z,6.82
2023-07-02T02:21:31.030Z,5.57
2023-07-02T02:23:57.854Z,6.72
2023-07-02T02:26:26.490Z,6.65
2023-07-02T02:28:53.699Z,6.05
2023-07-02T02:31:20.564Z,6.32
2023-07-02T02:33:47.536Z,6.50
2023-07-02T02:36:14.336Z,6.47
2023-07-02T02:38:41.139Z,6.10
2023-07-02T02:41:09.530Z,6.65
2023-07-02T02:43:36.367Z,6.10
2023-07-02T02:46:03.187Z,6.53
2023-07-02T02:48:30.016Z,6.25
2023-07-02T02:50:56.775Z,6.97
2023-07-02T02:53:23.559Z,5.78
2023-07-02T02:55:50.421Z,6.25
2023-07-02T02:58:17.194Z,6.72
2023-07-02T03:00:46.855Z,6.72
2023-07-02T03:03:14.589Z,6.20
2023-07-02T03:05:41.475Z,6.50
2023-07-02T03:08:08.200Z,7.07
2023-07-02T03:10:34.942Z,6.95
2023-07-02T03:13:01.696Z,7.13
2023-07-02T03:15:28.476Z,6.43
2023-07-02T03:17:55.499Z,6.78
2023-07-02T03:20:22.341Z,5.97
2023-07-02T03:22:49.174Z,6.05
2023-07-02T03:25:16.245Z,6.65
2023-07-02T03:27:43.194Z,6.50
2023-07-02T03:30:10.226Z,6.45
2023-07-02T03:32:37.098Z,6.60
2023-07-02T03:35:04.045Z,6.20
2023-07-02T03:37:30.970Z,7.07
2023-07-02T03:39:59.765Z,7.05
2023-07-02T03:42:26.537Z,7.22
2023-07-02T03:44:53.303Z,7.07
2023-07-02T03:47:20.749Z,7.40
2023-07-02T03:49:49.041Z,7.22
2023-07-02T03:52:15.866Z,7.35
2023-07-02T03:54:42.644Z,6.95
2023-07-02T03:57:09.368Z,6.35
2023-07-02T03:59:36.392Z,7.22
2023-07-02T04:02:03.283Z,6.82
2023-07-02T04:04:30.208Z,7.03
2023-07-02T04:06:57.194Z,6.75
2023-07-02T04:09:24.063Z,7.25
2023-07-02T04:11:50.829Z,7.53
2023-07-02T04:14:17.631Z,8.75
2023-07-02T04:16:46.166Z,7.50
2023-07-02T04:19:13.231Z,7.18
2023-07-02T04:21:40.114Z,7.70
2023-07-02T04:24:07.142Z,7.43
2023-07-02T04:26:45.632Z,6.50
2023-07-02T04:29:21.518Z,7.55
2023-07-02T04:31:48.318Z,7.80
2023-07-02T04:34:15.395Z,6.97
2023-07-02T04:36:42.235Z,7.80
2023-07-02T04:39:10.029Z,7.57
2023-07-02T04:41:36.808Z,7.50
2023-07-02T04:44:03.756Z,8.40
2023-07-02T04:46:31.000Z,7.88
2023-07-02T04:48:58.059Z,8.13
2023-07-02T04:51:24.922Z,7.40
2023-07-02T04:53:51.731Z,7.97
2023-07-02T04:56:18.473Z,7.65
2023-07-02T04:58:45.295Z,7.70
2023-07-02T05:01:12.241Z,8.00
2023-07-02T05:03:40.038Z,7.68
2023-07-02T05:06:06.975Z,7.30
2023-07-02T05:08:33.719Z,8.20
2023-07-02T05:11:00.539Z,7.57
2023-07-02T05:13:27.382Z,8.27
2023-07-02T05:15:54.155Z,7.35
2023-07-02T05:18:20.968Z,7.18
2023-07-02T05:20:48.049Z,7.82
2023-07-02T05:23:15.184Z,7.57
2023-07-02T05:25:41.959Z,7.53
2023-07-02T05:28:08.734Z,7.63
2023-07-02T05:30:35.482Z,7.03
2023-07-02T05:33:02.304Z,7.65
2023-07-02T05:35:29.184Z,7.70
2023-07-02T05:37:55.933Z,7.32
2023-07-02T05:40:22.696Z,7.03
2023-07-02T05:42:49.445Z,6.97
2023-07-02T05:45:16.349Z,6.80
2023-07-02T05:47:43.188Z,6.45
2023-07-02T05:50:10.538Z,6.32
2023-07-02T05:52:37.323Z,6.60
2023-07-02T05:55:04.827Z,6.57
2023-07-02T05:57:31.577Z,7.18
2023-07-02T05:59:58.453Z,6.32
2023-07-02T06:02:25.312Z,6.68
2023-07-02T06:04:52.279Z,7.20
2023-07-02T06:07:19.180Z,6.60
2023-07-02T06:09:45.948Z,7.03
2023-07-02T06:12:13.319Z,5.95
2023-07-02T06:14:40.034Z,6.65
2023-07-02T06:17:08.749Z,7.53
2023-07-02T06:19:36.638Z,6.50
2023-07-02T06:22:03.592Z,7.20
2023-07-02T06:24:30.387Z,6.00
2023-07-02T06:26:57.132Z,5.88
2023-07-02T06:29:24.844Z,5.65
2023-07-02T06:31:52.224Z,5.97
2023-07-02T06:34:19.002Z,6.53
2023-07-02T06:36:45.780Z,6.30
2023-07-02T06:39:12.621Z,6.10
2023-07-02T06:41:39.443Z,5.68
2023-07-02T06:44:06.246Z,6.22
2023-07-02T06:46:33.967Z,6.28
2023-07-02T06:49:00.841Z,5.95
2023-07-02T06:51:28.429Z,5.72
2023-07-02T06:53:55.270Z,5.15
2023-07-02T06:56:22.162Z,5.68
2023-07-02T06:58:49.237Z,5.38
2023-07-02T07:01:16.050Z,6.43
2023-07-02T07:03:42.978Z,6.15
2023-07-02T07:06:09.763Z,5.47
2023-07-02T07:08:40.068Z,5.20
2023-07-02T07:13:33.744Z,6.25
2023-07-02T07:16:00.565Z,5.38
2023-07-02T07:18:29.697Z,5.60
2023-07-02T07:20:58.113Z,5.65
2023-07-02T07:23:24.886Z,5.22
2023-07-02T07:25:52.110Z,5.38
2023-07-02T07:28:18.871Z,5.30
2023-07-02T07:30:45.865Z,5.50
2023-07-02T07:33:12.790Z,5.25
2023-07-02T07:35:39.574Z,5.10
2023-07-02T07:38:06.354Z,5.38
2023-07-02T07:40:33.123Z,4.75
2023-07-02T07:42:59.905Z,5.03
2023-07-02T07:45:26.727Z,4.97
2023-07-02T07:47:53.577Z,4.38
2023-07-02T07:50:20.402Z,4.50
2023-07-02T07:52:47.269Z,4.30
2023-07-02T07:55:14.516Z,4.72
2023-07-02T07:57:41.424Z,4.40
2023-07-02T08:00:09.120Z,5.18
2023-07-02T08:02:36.007Z,4.00
2023-07-02T08:05:04.116Z,4.63
2023-07-02T08:07:34.300Z,4.82
2023-07-02T08:12:29.996Z,5.00
2023-07-02T08:14:57.676Z,5.00
2023-07-02T08:17:24.577Z,4.53
2023-07-02T08:19:51.398Z,5.10
2023-07-02T08:22:18.387Z,4.85
2023-07-02T08:24:45.170Z,3.83
2023-07-02T08:27:14.900Z,5.00
2023-07-02T08:29:41.793Z,4.68
2023-07-02T08:32:09.004Z,4.47
2023-07-02T08:34:35.857Z,4.47
2023-07-02T08:37:02.823Z,5.22
2023-07-02T08:39:29.563Z,4.80
2023-07-02T08:41:56.404Z,4.70
2023-07-02T08:44:23.640Z,5.10
2023-07-02T08:46:52.248Z,4.45
2023-07-02T08:49:19.260Z,4.63
2023-07-02T08:51:47.153Z,4.10
2023-07-02T08:54:15.264Z,4.40
2023-07-02T08:56:42.820Z,4.35
2023-07-02T08:59:10.445Z,3.85
2023-07-02T09:01:47.232Z,4.55
2023-07-02T09:04:25.690Z,5.15
2023-07-02T09:07:06.702Z,4.70
2023-07-02T09:09:33.774Z,3.92
2023-07-02T09:12:01.736Z,4.00
2023-07-02T09:14:31.227Z,3.88
2023-07-02T09:17:10.140Z,4.03
2023-07-02T09:19:37.941Z,3.75
2023-07-02T09:22:05.075Z,3.17
2023-07-02T09:24:33.112Z,3.42
2023-07-02T09:27:01.924Z,3.10
2023-07-02T09:29:33.872Z,3.38
2023-07-02T09:34:37.027Z,3.20
2023-07-02T09:37:06.200Z,3.20
2023-07-02T09:39:35.174Z,3.20
2023-07-02T09:42:03.869Z,3.20
2023-07-02T09:44:31.937Z,3.25
2023-07-02T09:47:06.052Z,2.85
2023-07-02T09:49:34.935Z,3.03
2023-07-02T09:52:09.931Z,3.10
2023-07-02T09:54:37.438Z,3.00
2023-07-02T09:57:05.396Z,3.13
2023-07-02T09:59:32.179Z,2.70
2023-07-02T10:01:59.479Z,3.30
2023-07-02T10:04:26.865Z,3.20
2023-07-02T10:06:58.191Z,3.35
2023-07-02T10:09:39.197Z,3.15
2023-07-02T10:12:27.492Z,2.85
2023-07-02T10:14:56.711Z,3.10
2023-07-02T10:17:37.663Z,3.13
2023-07-02T10:20:09.699Z,2.95
2023-07-02T10:22:48.460Z,3.00
2023-07-02T10:25:29.292Z,2.80
2023-07-02T10:27:56.771Z,2.65
2023-07-02T10:30:54.445Z,2.85
2023-07-02T10:33:21.956Z,3.00
2023-07-02T10:35:50.795Z,3.13
2023-07-02T10:38:22.881Z,2.80
2023-07-02T10:40:58.117Z,2.67
2023-07-02T10:43:30.806Z,3.00
2023-07-02T10:46:01.114Z,3.22
2023-07-02T10:48:28.355Z,2.97
2023-07-02T10:50:55.223Z,3.20
2023-07-02T10:53:23.079Z,3.35
2023-07-02T10:55:58.551Z,3.08
2023-07-02T10:58:26.336Z,3.03
2023-07-02T11:00:53.588Z,2.92
2023-07-02T11:03:27.829Z,2.90
2023-07-02T11:05:55.532Z,3.30
2023-07-02T11:08:24.315Z,3.10
2023-07-02T11:10:51.982Z,3.42
2023-07-02T11:13:20.784Z,3.20
2023-07-02T11:15:49.086Z,3.17
2023-07-02T11:18:19.008Z,3.10
2023-07-02T11:20:47.970Z,3.17
2023-07-02T11:23:23.570Z,3.20
2023-07-02T11:25:59.892Z,3.35
2023-07-02T11:28:28.254Z,3.20
2023-07-02T11:30:55.456Z,2.92
2023-07-02T11:33:42.544Z,3.58
2023-07-02T11:36:21.395Z,3.20
2023-07-02T11:38:48.624Z,3.33
2023-07-02T11:41:15.492Z,3.47
2023-07-02T11:43:42.358Z,3.22
2023-07-02T11:46:09.241Z,3.40
2023-07-02T11:48:36.063Z,3.47
2023-07-02T11:51:02.878Z,3.03
2023-07-02T11:53:29.691Z,3.17
2023-07-02T11:55:56.478Z,3.22
2023-07-02T11:58:23.275Z,3.53
2023-07-02T12:00:50.026Z,3.15
2023-07-02T12:03:16.867Z,3.42
2023-07-02T12:05:43.612Z,3.53
2023-07-02T12:08:10.508Z,3.45
2023-07-02T12:10:38.970Z,3.00
2023-07-02T12:13:06.115Z,3.72
2023-07-02T12:15:32.876Z,3.55
2023-07-02T12:17:59.641Z,3.83
2023-07-02T12:20:26.421Z,3.53
2023-07-02T12:22:53.186Z,3.40
2023-07-02T12:25:20.097Z,3.40
2023-07-02T12:27:46.891Z,3.70
2023-07-02T12:30:18.157Z,3.50
2023-07-02T12:32:45.678Z,3.63
2023-07-02T12:35:13.134Z,3.80
2023-07-02T12:37:47.792Z,3.47
2023-07-02T12:40:15.252Z,3.40
2023-07-02T12:42:43.464Z,3.63
2023-07-02T12:45:12.327Z,3.80
2023-07-02T12:47:43.227Z,3.60
2023-07-02T12:50:11.395Z,3.60
2023-07-02T12:52:38.373Z,3.50
2023-07-02T12:55:05.603Z,3.78
2023-07-02T12:57:32.433Z,3.97
2023-07-02T12:59:59.262Z,3.72
2023-07-02T13:02:26.260Z,3.80
2023-07-02T13:04:53.357Z,3.55
2023-07-02T13:07:20.534Z,3.45
2023-07-02T13:09:47.331Z,4.15
2023-07-02T13:12:14.206Z,4.05
2023-07-02T13:14:40.946Z,3.88
2023-07-02T13:17:07.767Z,3.85
2023-07-02T13:19:35.182Z,3.95
2023-07-02T13:22:02.113Z,3.58
2023-07-02T13:24:34.400Z,3.80
2023-07-02T13:27:03.562Z,3.80
2023-07-02T13:29:30.324Z,4.20
2023-07-02T13:31:57.556Z,4.05
2023-07-02T13:34:24.416Z,4.07
2023-07-02T13:36:51.162Z,4.20
2023-07-02T13:39:17.907Z,3.67
2023-07-02T13:41:44.784Z,3.63
2023-07-02T13:44:11.723Z,3.97
2023-07-02T13:46:38.709Z,3.88
2023-07-02T13:49:05.559Z,3.70
2023-07-02T13:51:32.401Z,4.05
2023-07-02T13:53:59.185Z,3.72
2023-07-02T13:56:25.968Z,3.90
2023-07-02T13:58:58.606Z,4.28
2023-07-02T14:01:25.811Z,4.07
2023-07-02T14:03:54.646Z,4.63
2023-07-02T14:06:21.982Z,4.18
2023-07-02T14:08:49.298Z,4.30
2023-07-02T14:11:16.491Z,4.75
2023-07-02T14:13:43.364Z,4.50
2023-07-02T14:16:10.308Z,4.60
2023-07-02T14:18:37.079Z,4.78
2023-07-02T14:21:04.050Z,4.63
2023-07-02T14:23:30.835Z,4.60
2023-07-02T14:25:57.635Z,4.95
2023-07-02T14:28:27.052Z,4.38
2023-07-02T14:31:00.910Z,4.57
2023-07-02T14:33:29.671Z,4.28
2023-07-02T14:35:56.590Z,4.47
2023-07-02T14:38:23.728Z,4.22
2023-07-02T14:40:51.594Z,4.25
2023-07-02T14:43:19.305Z,4.47
2023-07-02T14:45:49.526Z,4.25
2023-07-02T14:48:17.497Z,4.18
2023-07-02T14:50:50.822Z,4.00
2023-07-02T14:53:18.787Z,4.60
2023-07-02T14:55:46.689Z,4.15
2023-07-02T14:58:14.767Z,3.97
2023-07-02T15:00:49.110Z,4.00
2023-07-02T15:03:16.735Z,4.30
2023-07-02T15:05:44.255Z,3.53
2023-07-02T15:08:13.932Z,4.10
2023-07-02T15:10:41.579Z,3.60
2023-07-02T15:13:09.108Z,4.07
2023-07-02T15:15:37.276Z,3.50
2023-07-02T15:18:05.133Z,4.20
2023-07-02T15:20:32.012Z,3.67
2023-07-02T15:22:58.760Z,4.35
2023-07-02T15:25:25.579Z,3.80
2023-07-02T15:27:53.005Z,3.90
2023-07-02T15:30:20.299Z,3.92
2023-07-02T15:32:47.211Z,4.15
2023-07-02T15:35:13.996Z,3.47
2023-07-02T15:37:42.901Z,4.32
2023-07-02T15:40:10.964Z,4.60
2023-07-02T15:42:37.897Z,3.88
2023-07-02T15:45:05.452Z,3.80
2023-07-02T15:47:33.905Z,4.22
2023-07-02T15:50:01.070Z,4.40
2023-07-02T15:52:28.035Z,4.50
2023-07-02T15:54:54.890Z,4.85
2023-07-02T15:57:21.692Z,4.45
2023-07-02T15:59:48.460Z,4.28
2023-07-02T16:02:15.237Z,4.45
2023-07-02T16:04:46.129Z,3.90
2023-07-02T16:07:13.966Z,4.57
2023-07-02T16:09:41.153Z,4.63
2023-07-02T16:12:09.025Z,4.43
2023-07-02T16:14:38.287Z,4.70
2023-07-02T16:17:07.333Z,4.63
2023-07-02T16:19:34.347Z,4.95
2023-07-02T16:22:01.337Z,4.60
2023-07-02T16:24:31.640Z,4.22
2023-07-02T16:26:59.365Z,4.80
2023-07-02T16:29:29.420Z,5.05
2023-07-02T16:31:58.055Z,4.55
2023-07-02T16:34:26.403Z,4.63
2023-07-02T16:36:53.534Z,4.97
2023-07-02T16:39:21.131Z,4.75
2023-07-02T16:41:49.350Z,4.53
2023-07-02T16:44:18.151Z,4.30
2023-07-02T16:46:46.620Z,4.75
2023-07-02T16:49:13.796Z,4.47
2023-07-02T16:51:43.092Z,4.70
2023-07-02T16:54:15.934Z,4.77
2023-07-02T16:56:49.157Z,4.55
2023-07-02T16:59:17.502Z,4.63
2023-07-02T17:01:49.746Z,4.70
2023-07-02T17:04:17.470Z,4.68
2023-07-02T17:06:49.516Z,5.00
2023-07-02T17:09:34.265Z,4.80
2023-07-02T17:12:07.376Z,4.93
2023-07-02T17:14:37.482Z,4.78
2023-07-02T17:20:01.066Z,5.28
2023-07-02T17:22:30.988Z,4.78
2023-07-02T17:25:01.241Z,6.00
2023-07-02T17:27:30.072Z,4.78
2023-07-02T17:29:58.085Z,4.95
2023-07-02T17:32:25.646Z,5.32
2023-07-02T17:34:52.841Z,4.72
2023-07-02T17:37:21.440Z,4.30
2023-07-02T17:39:49.580Z,5.22
2023-07-02T17:42:17.828Z,5.03
2023-07-02T17:44:46.204Z,5.05
2023-07-02T17:47:15.724Z,5.30
2023-07-02T17:49:45.193Z,5.07
2023-07-02T17:52:15.193Z,4.60
2023-07-02T17:54:48.095Z,4.88
2023-07-02T17:57:16.794Z,4.60
2023-07-02T17:59:44.279Z,4.30
2023-07-02T18:02:14.150Z,4.97
2023-07-02T18:04:41.402Z,5.05
2023-07-02T18:07:19.874Z,4.78
2023-07-02T18:09:49.503Z,5.00
2023-07-02T18:12:18.868Z,5.20
2023-07-02T18:14:46.584Z,5.00
2023-07-02T18:17:14.356Z,5.18
2023-07-02T18:19:41.190Z,4.78
2023-07-02T18:22:08.438Z,5.03
2023-07-02T18:24:40.397Z,4.70
2023-07-02T18:27:09.372Z,4.72
2023-07-02T18:29:38.881Z,5.13
2023-07-02T18:32:07.594Z,5.40
2023-07-02T18:34:37.605Z,5.10
2023-07-02T18:37:06.189Z,5.03
2023-07-02T18:39:34.990Z,5.13
2023-07-02T18:42:11.861Z,4.80
2023-07-02T18:44:39.203Z,5.07
2023-07-02T18:47:12.554Z,4.65
2023-07-02T18:49:40.588Z,6.05
2023-07-02T18:52:10.637Z,5.20
2023-07-02T18:54:38.013Z,4.93
2023-07-02T18:57:06.639Z,5.53
2023-07-02T18:59:34.706Z,4.97
2023-07-02T19:02:04.006Z,5.05
2023-07-02T19:04:31.740Z,5.33
2023-07-02T19:06:59.150Z,5.15
2023-07-02T19:09:26.508Z,4.43
2023-07-02T19:11:53.306Z,4.78
2023-07-02T19:14:20.102Z,4.53
2023-07-02T19:16:48.042Z,4.55
2023-07-02T19:19:15.162Z,4.68
2023-07-02T19:21:42.022Z,5.28
2023-07-02T19:24:08.836Z,4.93
2023-07-02T19:26:36.973Z,4.60
2023-07-02T19:29:03.826Z,4.57
2023-07-02T19:31:30.666Z,4.43
2023-07-02T19:33:57.485Z,4.25
2023-07-02T19:36:24.290Z,5.30
2023-07-02T19:38:51.032Z,4.93
2023-07-02T19:41:17.802Z,5.63
2023-07-02T19:43:45.059Z,4.25
2023-07-02T19:46:11.992Z,4.85
2023-07-02T19:48:38.977Z,4.68
2023-07-02T19:51:06.660Z,4.38
2023-07-02T19:53:35.262Z,5.22
2023-07-02T19:56:09.348Z,4.68
2023-07-02T19:58:36.892Z,4.80
2023-07-02T20:01:04.192Z,4.22
2023-07-02T20:03:32.313Z,4.80
2023-07-02T20:05:59.593Z,5.07
2023-07-02T20:08:26.416Z,4.35
2023-07-02T20:10:53.545Z,4.32
2023-07-02T20:13:20.599Z,4.63
2023-07-02T20:15:48.898Z,4.30
2023-07-02T20:18:16.888Z,4.68
2023-07-02T20:20:43.879Z,4.13
2023-07-02T20:23:10.632Z,4.40
2023-07-02T20:28:08.827Z,4.50
2023-07-02T20:30:35.675Z,4.15
2023-07-02T20:33:02.640Z,4.32
2023-07-02T20:35:29.621Z,4.47
2023-07-02T20:37:56.556Z,4.07
2023-07-02T20:40:24.176Z,4.25
2023-07-02T20:42:53.481Z,4.25
2023-07-02T20:45:22.118Z,4.23
2023-07-02T20:47:48.984Z,4.18
2023-07-02T20:50:16.598Z,4.28
2023-07-02T20:52:45.649Z,4.30
2023-07-02T20:55:12.924Z,4.05
2023-07-02T20:57:39.676Z,4.03
2023-07-02T21:00:12.674Z,4.35
2023-07-02T21:02:40.683Z,3.47
2023-07-02T21:05:08.931Z,4.50
2023-07-02T21:07:36.117Z,4.82
2023-07-02T21:10:04.244Z,4.35
2023-07-02T21:12:31.012Z,3.90
2023-07-02T21:14:57.993Z,3.95
2023-07-02T21:17:24.865Z,4.03
2023-07-02T21:19:51.702Z,4.22
2023-07-02T21:22:18.494Z,4.10
2023-07-02T21:24:50.439Z,3.75
2023-07-02T21:27:17.775Z,4.65
2023-07-02T21:29:44.557Z,4.43
2023-07-02T21:32:11.391Z,5.35
2023-07-02T21:34:38.206Z,4.05
2023-07-02T21:37:05.102Z,4.30
2023-07-02T21:39:31.876Z,4.13
2023-07-02T21:41:58.705Z,4.70
2023-07-02T21:44:25.593Z,3.88
2023-07-02T21:46:53.632Z,3.58
2023-07-02T21:49:20.480Z,4.40
2023-07-02T21:51:47.273Z,4.45
2023-07-02T21:54:14.133Z,4.20
2023-07-02T21:56:40.886Z,4.10
2023-07-02T21:59:07.757Z,4.50
2023-07-02T22:01:34.591Z,3.88
2023-07-02T22:04:01.493Z,4.18
2023-07-02T22:06:28.250Z,4.00
2023-07-02T22:08:54.991Z,4.68
2023-07-02T22:11:24.131Z,4.50
2023-07-02T22:13:52.186Z,4.53
2023-07-02T22:16:19.168Z,3.95
2023-07-02T22:18:45.987Z,4.13
2023-07-02T22:21:12.919Z,4.18
2023-07-02T22:23:39.744Z,3.95
2023-07-02T22:26:06.982Z,4.75
2023-07-02T22:28:33.736Z,4.85
2023-07-02T22:31:03.234Z,4.03
2023-07-02T22:33:30.103Z,4.45
2023-07-02T22:35:56.845Z,4.88
2023-07-02T22:38:23.739Z,4.65
2023-07-02T22:40:50.486Z,4.30
2023-07-02T22:43:17.228Z,4.30
2023-07-02T22:45:44.094Z,4.28
2023-07-02T22:48:10.887Z,4.55
2023-07-02T22:50:38.395Z,4.55
2023-07-02T22:53:05.386Z,4.53
2023-07-02T22:55:32.201Z,4.38
2023-07-02T22:57:59.265Z,4.10
2023-07-02T23:00:26.581Z,4.85
2023-07-02T23:02:53.795Z,4.40
2023-07-02T23:05:23.531Z,4.18
2023-07-02T23:07:50.645Z,4.15
2023-07-02T23:10:17.852Z,4.40
2023-07-02T23:12:49.480Z,4.75
2023-07-02T23:15:18.775Z,4.43
2023-07-02T23:17:48.252Z,4.57
2023-07-02T23:20:15.780Z,4.70
2023-07-02T23:22:43.788Z,4.55
2023-07-02T23:25:15.985Z,4.10
2023-07-02T23:27:43.640Z,4.88
2023-07-02T23:30:14.630Z,4.38
2023-07-02T23:32:42.139Z,4.25
2023-07-02T23:35:11.444Z,3.95
2023-07-02T23:37:38.844Z,4.40
2023-07-02T23:40:07.849Z,4.07
2023-07-02T23:42:35.803Z,3.63
2023-07-02T23:45:07.921Z,4.07
2023-07-02T23:47:35.448Z,4.00
2023-07-02T23:50:02.523Z,4.50
2023-07-02T23:52:29.380Z,4.28
2023-07-02T23:54:56.142Z,4.38
2023-07-02T23:57:22.900Z,4.60
2023-07-02T23:59:49.682Z,3.53
